createdAt,value
2023-04-26T00:00:30.589Z,30.41
2023-04-26T00:01:30.609Z,30.41
2023-04-26T00:02:30.839Z,30.35
2023-04-26T00:03:30.784Z,30.39
2023-04-26T00:04:30.928Z,30.35
2023-04-26T00:05:30.837Z,30.42
2023-04-26T00:06:30.865Z,30.36
2023-04-26T00:07:30.927Z,30.36
2023-04-26T00:08:30.921Z,30.36
2023-04-26T00:09:30.990Z,30.36
2023-04-26T00:10:30.970Z,30.42
2023-04-26T00:11:30.995Z,30.36
2023-04-26T00:12:31.020Z,30.38
2023-04-26T00:13:31.092Z,30.39
2023-04-26T00:14:31.100Z,30.39
2023-04-26T00:15:31.182Z,30.38
2023-04-26T00:17:34.795Z,30.42
2023-04-26T00:18:34.732Z,30.36
2023-04-26T00:19:34.724Z,30.39
2023-04-26T00:20:34.734Z,30.38
2023-04-26T00:21:34.707Z,30.38
2023-04-26T00:22:34.684Z,30.36
2023-04-26T00:23:34.696Z,30.36
2023-04-26T00:24:34.668Z,30.34
2023-04-26T00:25:34.673Z,30.35
2023-04-26T00:26:34.663Z,30.36
2023-04-26T00:27:34.670Z,30.37
2023-04-26T00:28:34.645Z,30.36
2023-04-26T00:29:34.644Z,30.40
2023-04-26T00:30:34.634Z,30.41
2023-04-26T00:31:34.680Z,30.41
2023-04-26T00:32:34.672Z,30.39
2023-04-26T00:33:34.604Z,30.36
2023-04-26T00:34:34.597Z,30.41
2023-04-26T00:35:34.587Z,30.41
2023-04-26T00:36:34.582Z,30.36
2023-04-26T00:37:34.621Z,30.39
2023-04-26T00:38:34.560Z,30.37
2023-04-26T00:39:34.552Z,30.40
2023-04-26T00:40:34.556Z,30.35
2023-04-26T00:41:34.563Z,30.42
2023-04-26T00:42:34.552Z,30.37
2023-04-26T00:43:34.542Z,30.38
2023-04-26T00:44:34.786Z,30.35
2023-04-26T00:45:34.588Z,30.35
2023-04-26T00:46:34.521Z,30.35
2023-04-26T00:47:34.520Z,30.35
2023-04-26T00:48:34.545Z,30.33
2023-04-26T00:49:34.555Z,30.37
2023-04-26T00:50:34.536Z,30.39
2023-04-26T00:51:34.560Z,30.33
2023-04-26T00:52:34.593Z,30.36
2023-04-26T00:53:34.644Z,30.37
2023-04-26T00:54:34.671Z,30.35
2023-04-26T00:55:34.759Z,30.37
2023-04-26T00:56:34.753Z,30.40
2023-04-26T00:57:34.760Z,30.39
2023-04-26T00:58:34.848Z,30.35
2023-04-26T00:59:34.830Z,30.43
2023-04-26T01:00:34.832Z,30.39
2023-04-26T01:01:34.955Z,30.42
2023-04-26T01:02:35.052Z,30.43
2023-04-26T01:03:35.049Z,30.39
2023-04-26T01:04:35.018Z,30.37
2023-04-26T01:05:34.921Z,30.37
2023-04-26T01:06:34.939Z,30.36
2023-04-26T01:07:34.951Z,30.40
2023-04-26T01:08:35.013Z,30.36
2023-04-26T01:09:34.987Z,30.39
2023-04-26T01:10:34.988Z,30.40
2023-04-26T01:11:35.020Z,30.40
2023-04-26T01:12:35.006Z,30.42
2023-04-26T01:13:35.137Z,30.39
2023-04-26T01:14:35.044Z,30.39
2023-04-26T01:15:35.051Z,30.40
2023-04-26T01:16:35.059Z,30.37
2023-04-26T01:17:35.124Z,30.40
2023-04-26T01:18:35.118Z,30.43
2023-04-26T01:19:35.085Z,30.41
2023-04-26T01:20:35.100Z,30.39
2023-04-26T01:21:35.104Z,30.39
2023-04-26T01:22:35.131Z,30.40
2023-04-26T01:23:35.146Z,30.46
2023-04-26T01:24:35.112Z,30.35
2023-04-26T01:25:35.159Z,30.40
2023-04-26T01:26:35.171Z,30.40
2023-04-26T01:27:35.135Z,30.39
2023-04-26T01:28:35.144Z,30.40
2023-04-26T01:29:35.206Z,30.41
2023-04-26T01:30:35.131Z,30.37
2023-04-26T01:31:35.233Z,30.39
2023-04-26T01:32:35.142Z,30.41
2023-04-26T01:33:35.158Z,30.40
2023-04-26T01:34:35.160Z,30.41
2023-04-26T01:35:35.170Z,30.40
2023-04-26T01:36:35.190Z,30.41
2023-04-26T01:37:35.150Z,30.43
2023-04-26T01:38:35.203Z,30.41
2023-04-26T01:39:35.170Z,30.43
2023-04-26T01:40:35.164Z,30.40
2023-04-26T01:41:35.175Z,30.41
2023-04-26T01:42:35.209Z,30.41
2023-04-26T01:43:35.218Z,30.41
2023-04-26T01:44:35.164Z,30.44
2023-04-26T01:45:35.199Z,30.44
2023-04-26T01:46:35.183Z,30.46
2023-04-26T01:47:35.204Z,30.44
2023-04-26T01:48:35.206Z,30.46
2023-04-26T01:49:35.187Z,30.44
2023-04-26T01:50:35.180Z,30.43
2023-04-26T01:51:35.205Z,30.42
2023-04-26T01:52:35.175Z,30.48
2023-04-26T01:53:35.172Z,30.42
2023-04-26T01:54:35.176Z,30.41
2023-04-26T01:55:35.181Z,30.41
2023-04-26T01:56:35.196Z,30.34
2023-04-26T01:57:35.199Z,30.40
2023-04-26T01:58:35.160Z,30.42
2023-04-26T01:59:35.195Z,30.46
2023-04-26T02:00:35.163Z,30.44
2023-04-26T02:01:35.204Z,30.42
2023-04-26T02:02:35.198Z,30.41
2023-04-26T02:03:35.244Z,30.42
2023-04-26T02:04:35.178Z,30.46
2023-04-26T02:05:35.162Z,30.40
2023-04-26T02:06:35.160Z,30.41
2023-04-26T02:07:35.160Z,30.41
2023-04-26T02:08:35.145Z,30.44
2023-04-26T02:09:35.178Z,30.44
2023-04-26T02:10:35.138Z,30.46
2023-04-26T02:11:35.148Z,30.44
2023-04-26T02:12:35.157Z,30.41
2023-04-26T02:13:35.182Z,30.45
2023-04-26T02:14:35.177Z,30.50
2023-04-26T02:15:35.161Z,30.44
2023-04-26T02:16:35.251Z,30.48
2023-04-26T02:17:35.202Z,30.45
2023-04-26T02:18:35.209Z,30.42
2023-04-26T02:19:35.199Z,30.45
2023-04-26T02:20:35.144Z,30.45
2023-04-26T02:21:35.152Z,30.44
2023-04-26T02:22:35.177Z,30.44
2023-04-26T02:23:35.140Z,30.45
2023-04-26T02:24:35.188Z,30.51
2023-04-26T02:25:35.133Z,30.46
2023-04-26T02:26:35.146Z,30.42
2023-04-26T02:27:35.117Z,30.48
2023-04-26T02:28:35.112Z,30.46
2023-04-26T02:30:35.117Z,30.46
2023-04-26T02:31:35.105Z,30.46
2023-04-26T02:32:35.109Z,30.51
2023-04-26T02:33:35.078Z,30.48
2023-04-26T02:34:35.083Z,30.45
2023-04-26T02:35:35.050Z,30.42
2023-04-26T02:36:35.045Z,30.45
2023-04-26T02:37:35.050Z,30.44
2023-04-26T02:38:35.084Z,30.43
2023-04-26T02:39:35.026Z,30.43
2023-04-26T02:40:35.017Z,30.45
2023-04-26T02:41:35.008Z,30.52
2023-04-26T02:42:34.999Z,30.42
2023-04-26T02:43:35.024Z,30.51
2023-04-26T02:44:34.998Z,30.49
2023-04-26T02:45:35.002Z,30.48
2023-04-26T02:46:35.048Z,30.45
2023-04-26T02:47:34.979Z,30.43
2023-04-26T02:48:34.948Z,30.49
2023-04-26T02:49:34.939Z,30.46
2023-04-26T02:50:34.973Z,30.45
2023-04-26T02:51:34.940Z,30.46
2023-04-26T02:52:34.941Z,30.49
2023-04-26T02:53:34.954Z,30.45
2023-04-26T02:54:34.923Z,30.45
2023-04-26T02:55:34.913Z,30.46
2023-04-26T02:56:34.898Z,30.51
2023-04-26T02:57:34.894Z,30.52
2023-04-26T02:58:34.883Z,30.52
2023-04-26T02:59:34.894Z,30.49
2023-04-26T03:00:34.887Z,30.46
2023-04-26T03:01:34.983Z,30.45
2023-04-26T03:02:34.962Z,30.49
2023-04-26T03:03:35.007Z,30.47
2023-04-26T03:04:34.868Z,30.47
2023-04-26T03:05:34.853Z,30.49
2023-04-26T03:06:34.854Z,30.49
2023-04-26T03:07:34.821Z,30.45
2023-04-26T03:08:34.801Z,30.49
2023-04-26T03:09:34.791Z,30.49
2023-04-26T03:10:34.820Z,30.49
2023-04-26T03:11:34.844Z,30.46
2023-04-26T03:12:34.835Z,30.49
2023-04-26T03:13:34.773Z,30.49
2023-04-26T03:14:34.775Z,30.51
2023-04-26T03:15:34.741Z,30.47
2023-04-26T03:16:34.773Z,30.46
2023-04-26T03:17:34.827Z,30.52
2023-04-26T03:18:34.741Z,30.49
2023-04-26T03:19:34.715Z,30.49
2023-04-26T03:20:34.724Z,30.55
2023-04-26T03:21:34.710Z,30.46
2023-04-26T03:22:34.733Z,30.56
2023-04-26T03:23:34.704Z,30.49
2023-04-26T03:24:34.678Z,30.55
2023-04-26T03:25:34.713Z,30.49
2023-04-26T03:26:34.675Z,30.47
2023-04-26T03:27:34.682Z,30.50
2023-04-26T03:28:34.663Z,30.51
2023-04-26T03:29:34.640Z,30.46
2023-04-26T03:30:34.651Z,30.53
2023-04-26T03:31:34.672Z,30.45
2023-04-26T03:32:34.646Z,30.50
2023-04-26T03:33:34.622Z,30.53
2023-04-26T03:34:34.600Z,30.51
2023-04-26T03:35:34.620Z,30.51
2023-04-26T03:36:34.589Z,30.55
2023-04-26T03:37:34.582Z,30.56
2023-04-26T03:38:34.586Z,30.55
2023-04-26T03:39:34.559Z,30.57
2023-04-26T03:40:34.556Z,30.53
2023-04-26T03:41:34.577Z,30.59
2023-04-26T03:42:34.574Z,30.53
2023-04-26T03:43:34.539Z,30.59
2023-04-26T03:44:34.541Z,30.55
2023-04-26T03:45:34.551Z,30.51
2023-04-26T03:46:34.500Z,30.50
2023-04-26T03:47:34.541Z,30.53
2023-04-26T03:48:34.514Z,30.53
2023-04-26T03:49:34.509Z,30.56
2023-04-26T03:50:35.027Z,30.54
2023-04-26T03:51:34.487Z,30.56
2023-04-26T03:52:34.463Z,30.54
2023-04-26T03:53:34.454Z,30.58
2023-04-26T03:54:34.486Z,30.59
2023-04-26T03:55:34.449Z,30.58
2023-04-26T03:56:34.447Z,30.53
2023-04-26T03:57:34.448Z,30.56
2023-04-26T03:58:34.435Z,30.56
2023-04-26T03:59:34.450Z,30.58
2023-04-26T04:00:34.419Z,30.51
2023-04-26T04:01:34.430Z,30.56
2023-04-26T04:02:34.592Z,30.57
2023-04-26T04:03:34.824Z,30.53
2023-04-26T04:04:34.697Z,30.54
2023-04-26T04:05:34.459Z,30.57
2023-04-26T04:06:34.370Z,30.56
2023-04-26T04:07:34.366Z,30.56
2023-04-26T04:08:34.359Z,30.57
2023-04-26T04:09:34.338Z,30.60
2023-04-26T04:10:34.336Z,30.60
2023-04-26T04:11:34.339Z,30.57
2023-04-26T04:12:34.370Z,30.60
2023-04-26T04:13:34.354Z,30.60
2023-04-26T04:14:34.314Z,30.62
2023-04-26T04:15:34.321Z,30.56
2023-04-26T04:16:34.316Z,30.58
2023-04-26T04:17:35.519Z,30.54
2023-04-26T04:18:34.310Z,30.60
2023-04-26T04:19:34.293Z,30.58
2023-04-26T04:20:34.268Z,30.56
2023-04-26T04:21:34.289Z,30.61
2023-04-26T04:22:34.258Z,30.63
2023-04-26T04:23:34.244Z,30.62
2023-04-26T04:24:34.552Z,30.61
2023-04-26T04:25:34.237Z,30.60
2023-04-26T04:26:34.233Z,30.53
2023-04-26T04:27:34.244Z,30.58
2023-04-26T04:28:34.245Z,30.58
2023-04-26T04:29:34.237Z,30.57
2023-04-26T04:30:34.245Z,30.66
2023-04-26T04:31:34.273Z,30.58
2023-04-26T04:32:34.221Z,30.57
2023-04-26T04:33:34.201Z,30.58
2023-04-26T04:34:34.173Z,30.54
2023-04-26T04:35:34.302Z,30.57
2023-04-26T04:36:34.149Z,30.57
2023-04-26T04:37:34.139Z,30.56
2023-04-26T04:38:34.153Z,30.60
2023-04-26T04:39:34.133Z,30.60
2023-04-26T04:40:34.121Z,30.69
2023-04-26T04:41:34.118Z,30.57
2023-04-26T04:42:34.109Z,30.60
2023-04-26T04:43:34.115Z,30.58
2023-04-26T04:44:34.090Z,30.57
2023-04-26T04:45:34.099Z,30.54
2023-04-26T04:46:34.114Z,30.51
2023-04-26T04:47:34.154Z,30.53
2023-04-26T04:48:34.069Z,30.50
2023-04-26T04:49:34.074Z,30.54
2023-04-26T04:50:34.038Z,30.50
2023-04-26T04:51:34.030Z,30.51
2023-04-26T04:52:34.048Z,30.48
2023-04-26T04:53:34.020Z,30.51
2023-04-26T04:54:34.034Z,30.51
2023-04-26T04:55:34.027Z,30.50
2023-04-26T04:56:34.072Z,30.48
2023-04-26T04:57:33.998Z,30.45
2023-04-26T04:58:33.997Z,30.45
2023-04-26T04:59:33.991Z,30.48
2023-04-26T05:00:34.005Z,30.47
2023-04-26T05:01:33.982Z,30.45
2023-04-26T05:02:34.032Z,30.47
2023-04-26T05:03:34.088Z,30.47
2023-04-26T05:04:34.165Z,30.42
2023-04-26T05:05:33.965Z,30.47
2023-04-26T05:06:33.999Z,30.48
2023-04-26T05:07:33.908Z,30.45
2023-04-26T05:08:33.905Z,30.44
2023-04-26T05:09:33.909Z,30.44
2023-04-26T05:10:33.901Z,30.39
2023-04-26T05:11:33.885Z,30.40
2023-04-26T05:12:33.885Z,30.40
2023-04-26T05:13:33.871Z,30.42
2023-04-26T05:14:33.892Z,30.41
2023-04-26T05:15:33.909Z,30.41
2023-04-26T05:16:33.877Z,30.38
2023-04-26T05:17:33.871Z,30.35
2023-04-26T05:18:33.846Z,30.37
2023-04-26T05:19:33.835Z,30.38
2023-04-26T05:20:33.850Z,30.40
2023-04-26T05:21:33.813Z,30.38
2023-04-26T05:22:33.830Z,30.41
2023-04-26T05:23:33.827Z,30.38
2023-04-26T05:24:33.803Z,30.38
2023-04-26T05:25:33.809Z,30.44
2023-04-26T05:26:33.793Z,30.35
2023-04-26T05:27:33.778Z,30.40
2023-04-26T05:28:33.758Z,30.30
2023-04-26T05:29:33.792Z,30.29
2023-04-26T05:30:33.815Z,30.23
2023-04-26T05:31:33.822Z,30.19
2023-04-26T05:32:33.810Z,30.07
2023-04-26T05:33:33.753Z,30.07
2023-04-26T05:34:33.733Z,29.99
2023-04-26T05:35:34.014Z,29.94
2023-04-26T05:36:33.718Z,30.03
2023-04-26T05:37:33.708Z,30.55
2023-04-26T05:38:33.779Z,30.29
2023-04-26T05:39:33.689Z,30.46
2023-04-26T05:40:33.742Z,30.86
2023-04-26T05:41:33.683Z,31.27
2023-04-26T05:42:33.726Z,31.41
2023-04-26T05:43:33.661Z,31.71
2023-04-26T05:44:33.704Z,31.82
2023-04-26T05:45:34.095Z,31.95
2023-04-26T05:46:33.653Z,31.93
2023-04-26T05:47:33.706Z,31.93
2023-04-26T05:48:34.568Z,32.36
2023-04-26T05:49:33.637Z,32.26
2023-04-26T05:50:34.035Z,32.82
2023-04-26T05:51:33.615Z,32.64
2023-04-26T05:52:33.620Z,32.48
2023-04-26T05:53:33.586Z,32.67
2023-04-26T05:54:33.583Z,33.63
2023-04-26T05:55:33.605Z,32.87
2023-04-26T05:56:33.564Z,32.75
2023-04-26T05:57:33.669Z,32.71
2023-04-26T05:58:33.605Z,32.39
2023-04-26T05:59:33.553Z,32.42
2023-04-26T06:00:33.573Z,32.73
2023-04-26T06:01:33.555Z,33.33
2023-04-26T06:02:33.813Z,33.44
2023-04-26T06:03:33.964Z,33.64
2023-04-26T06:04:34.020Z,33.79
2023-04-26T06:05:33.795Z,34.00
2023-04-26T06:06:33.809Z,33.81
2023-04-26T06:07:33.857Z,33.96
2023-04-26T06:08:33.925Z,34.12
2023-04-26T06:09:33.955Z,34.42
2023-04-26T06:10:34.054Z,34.35
2023-04-26T06:11:34.049Z,34.09
2023-04-26T06:12:34.097Z,34.41
2023-04-26T06:13:34.107Z,34.32
2023-04-26T06:14:34.173Z,34.38
2023-04-26T06:15:35.027Z,34.40
2023-04-26T06:16:34.241Z,34.38
2023-04-26T06:17:34.274Z,34.71
2023-04-26T06:18:34.429Z,34.72
2023-04-26T06:19:34.322Z,34.81
2023-04-26T06:20:34.347Z,35.10
2023-04-26T06:21:34.413Z,35.21
2023-04-26T06:22:34.382Z,35.04
2023-04-26T06:23:34.353Z,35.06
2023-04-26T06:24:34.380Z,35.12
2023-04-26T06:25:34.531Z,35.38
2023-04-26T06:26:34.392Z,35.42
2023-04-26T06:27:34.433Z,35.35
2023-04-26T06:28:34.402Z,35.46
2023-04-26T06:29:34.450Z,35.78
2023-04-26T06:30:34.584Z,35.30
2023-04-26T06:31:34.481Z,35.34
2023-04-26T06:32:34.487Z,35.06
2023-04-26T06:33:34.510Z,33.54
2023-04-26T06:34:34.457Z,34.46
2023-04-26T06:35:35.086Z,34.59
2023-04-26T06:36:34.475Z,32.91
2023-04-26T06:37:34.508Z,32.34
2023-04-26T06:38:34.591Z,30.91
2023-04-26T06:39:34.661Z,31.68
2023-04-26T06:40:35.041Z,31.61
2023-04-26T06:41:34.729Z,31.83
2023-04-26T06:42:34.766Z,31.79
2023-04-26T06:43:34.689Z,31.81
2023-04-26T06:44:34.730Z,32.41
2023-04-26T06:45:34.780Z,32.49
2023-04-26T06:46:34.771Z,32.48
2023-04-26T06:47:34.775Z,32.48
2023-04-26T06:48:34.764Z,32.29
2023-04-26T06:49:34.760Z,32.15
2023-04-26T06:50:34.830Z,32.04
2023-04-26T06:51:34.875Z,31.97
2023-04-26T06:52:34.894Z,32.17
2023-04-26T06:53:34.949Z,31.68
2023-04-26T06:54:39.888Z,32.08
2023-04-26T06:55:36.084Z,31.75
2023-04-26T06:56:35.096Z,31.75
2023-04-26T06:57:34.978Z,31.47
2023-04-26T06:58:34.965Z,31.64
2023-04-26T06:59:35.588Z,31.47
2023-04-26T07:00:35.042Z,31.40
2023-04-26T07:01:34.996Z,31.45
2023-04-26T07:02:35.018Z,31.58
2023-04-26T07:03:35.120Z,31.36
2023-04-26T07:04:35.137Z,31.26
2023-04-26T07:05:35.091Z,31.28
2023-04-26T07:06:35.206Z,31.36
2023-04-26T07:07:35.174Z,31.20
2023-04-26T07:08:35.239Z,31.31
2023-04-26T07:09:35.309Z,31.15
2023-04-26T07:10:35.359Z,31.45
2023-04-26T07:11:35.425Z,31.07
2023-04-26T07:12:35.523Z,31.41
2023-04-26T07:13:35.549Z,31.32
2023-04-26T07:14:37.135Z,31.13
2023-04-26T07:15:35.589Z,31.36
2023-04-26T07:16:35.643Z,31.38
2023-04-26T07:17:35.628Z,31.20
2023-04-26T07:18:35.567Z,31.21
2023-04-26T07:19:35.552Z,31.13
2023-04-26T07:20:35.577Z,31.17
2023-04-26T07:21:35.531Z,30.58
2023-04-26T07:22:35.507Z,30.69
2023-04-26T07:23:35.515Z,30.84
2023-04-26T07:24:35.488Z,30.96
2023-04-26T07:25:35.605Z,30.53
2023-04-26T07:26:35.511Z,30.79
2023-04-26T07:27:35.484Z,30.94
2023-04-26T07:28:35.467Z,30.90
2023-04-26T07:29:35.455Z,30.97
2023-04-26T07:30:35.456Z,30.90
2023-04-26T07:31:35.445Z,30.91
2023-04-26T07:32:35.507Z,31.05
2023-04-26T07:33:35.643Z,31.38
2023-04-26T07:34:35.427Z,31.02
2023-04-26T07:35:35.641Z,30.83
2023-04-26T07:36:35.403Z,30.67
2023-04-26T07:37:35.394Z,30.92
2023-04-26T07:38:35.427Z,30.98
2023-04-26T07:39:35.411Z,30.79
2023-04-26T07:40:35.398Z,30.85
2023-04-26T07:41:35.415Z,30.68
2023-04-26T07:42:35.368Z,30.70
2023-04-26T07:43:35.380Z,31.03
2023-04-26T07:44:35.410Z,31.41
2023-04-26T07:45:35.400Z,31.39
2023-04-26T07:46:35.404Z,31.33
2023-04-26T07:47:35.377Z,31.29
2023-04-26T07:48:35.389Z,31.19
2023-04-26T07:49:35.350Z,31.09
2023-04-26T07:50:35.319Z,30.49
2023-04-26T07:51:35.317Z,30.79
2023-04-26T07:52:35.356Z,30.16
2023-04-26T07:53:35.312Z,30.36
2023-04-26T07:54:35.314Z,29.75
2023-04-26T07:55:35.379Z,30.20
2023-04-26T07:56:35.314Z,30.53
2023-04-26T07:57:35.406Z,30.65
2023-04-26T07:58:35.455Z,30.67
2023-04-26T07:59:35.544Z,30.44
2023-04-26T08:00:35.591Z,30.72
2023-04-26T08:01:35.625Z,30.59
2023-04-26T08:02:44.472Z,30.54
2023-04-26T08:03:36.824Z,30.70
2023-04-26T08:04:35.835Z,30.72
2023-04-26T08:05:35.817Z,30.51
2023-04-26T08:06:35.683Z,30.57
2023-04-26T08:07:35.631Z,30.03
2023-04-26T08:08:35.619Z,30.13
2023-04-26T08:09:35.626Z,30.38
2023-04-26T08:10:36.221Z,30.47
2023-04-26T08:11:35.651Z,30.31
2023-04-26T08:12:35.615Z,30.38
2023-04-26T08:13:35.604Z,30.31
2023-04-26T08:14:35.674Z,30.23
2023-04-26T08:15:35.662Z,30.44
2023-04-26T08:16:35.792Z,30.59
2023-04-26T08:17:35.774Z,30.69
2023-04-26T08:18:35.743Z,30.51
2023-04-26T08:19:35.800Z,30.09
2023-04-26T08:20:35.800Z,30.23
2023-04-26T08:21:35.850Z,30.07
2023-04-26T08:22:35.917Z,30.30
2023-04-26T08:23:35.905Z,30.15
2023-04-26T08:24:35.942Z,30.19
2023-04-26T08:25:36.108Z,30.29
2023-04-26T08:26:36.128Z,30.41
2023-04-26T08:27:36.101Z,30.40
2023-04-26T08:28:36.120Z,30.32
2023-04-26T08:29:36.164Z,30.28
2023-04-26T08:30:37.141Z,30.20
2023-04-26T08:31:36.329Z,30.02
2023-04-26T08:32:36.308Z,30.01
2023-04-26T08:33:36.345Z,29.86
2023-04-26T08:34:36.417Z,29.91
2023-04-26T08:35:36.461Z,29.80
2023-04-26T08:36:36.514Z,29.76
2023-04-26T08:37:36.610Z,29.63
2023-04-26T08:38:36.598Z,29.64
2023-04-26T08:39:36.631Z,29.47
2023-04-26T08:40:37.098Z,29.44
2023-04-26T08:41:36.760Z,29.98
2023-04-26T08:42:37.956Z,30.21
2023-04-26T08:43:36.870Z,30.54
2023-04-26T08:44:36.945Z,31.04
2023-04-26T08:45:37.108Z,30.84
2023-04-26T08:46:37.113Z,30.89
2023-04-26T08:47:37.137Z,31.02
2023-04-26T08:48:37.114Z,31.15
2023-04-26T08:49:37.177Z,31.31
2023-04-26T08:50:37.603Z,31.18
2023-04-26T08:51:37.264Z,31.35
2023-04-26T08:52:37.256Z,31.41
2023-04-26T08:53:37.221Z,31.36
2023-04-26T08:54:37.295Z,31.25
2023-04-26T08:55:37.244Z,31.34
2023-04-26T08:56:37.258Z,31.14
2023-04-26T08:57:37.267Z,31.19
2023-04-26T08:58:37.308Z,31.22
2023-04-26T08:59:37.281Z,31.27
2023-04-26T09:00:37.630Z,31.21
2023-04-26T09:01:37.315Z,31.18
2023-04-26T09:02:37.486Z,31.12
2023-04-26T09:03:37.472Z,31.04
2023-04-26T09:04:37.460Z,29.99
2023-04-26T09:05:37.590Z,30.35
2023-04-26T09:06:37.289Z,29.90
2023-04-26T09:07:37.372Z,30.48
2023-04-26T09:08:37.390Z,28.36
2023-04-26T09:09:37.458Z,27.74
2023-04-26T09:10:37.726Z,29.67
2023-04-26T09:11:37.531Z,30.43
2023-04-26T09:12:37.572Z,31.15
2023-04-26T09:13:37.642Z,30.62
2023-04-26T09:14:37.623Z,30.62
2023-04-26T09:15:37.740Z,30.56
2023-04-26T09:16:37.768Z,30.34
2023-04-26T09:17:37.923Z,30.13
2023-04-26T09:18:37.708Z,30.51
2023-04-26T09:19:37.768Z,29.88
2023-04-26T09:20:37.716Z,29.86
2023-04-26T09:21:37.743Z,29.93
2023-04-26T09:22:37.705Z,29.65
2023-04-26T09:23:37.742Z,28.62
2023-04-26T09:24:37.737Z,29.71
2023-04-26T09:25:38.126Z,29.86
2023-04-26T09:26:37.739Z,30.60
2023-04-26T09:27:37.790Z,30.47
2023-04-26T09:28:37.797Z,30.54
2023-04-26T09:29:37.832Z,28.20
2023-04-26T09:30:37.878Z,30.01
2023-04-26T09:31:37.927Z,31.09
2023-04-26T09:32:37.991Z,31.35
2023-04-26T09:33:37.908Z,31.18
2023-04-26T09:34:37.964Z,30.24
2023-04-26T09:35:37.999Z,30.51
2023-04-26T09:36:38.052Z,30.42
2023-04-26T09:37:50.735Z,29.91
2023-04-26T09:38:39.119Z,29.05
2023-04-26T09:39:38.033Z,29.17
2023-04-26T09:40:38.111Z,29.27
2023-04-26T09:41:38.014Z,28.62
2023-04-26T09:42:38.027Z,28.26
2023-04-26T09:43:38.007Z,28.41
2023-04-26T09:44:38.009Z,28.03
2023-04-26T09:45:37.962Z,27.66
2023-04-26T09:46:38.025Z,28.43
2023-04-26T09:47:37.984Z,27.06
2023-04-26T09:48:37.923Z,26.17
2023-04-26T09:49:37.932Z,27.30
2023-04-26T09:50:38.670Z,27.08
2023-04-26T09:51:37.949Z,27.23
2023-04-26T09:52:37.918Z,26.13
2023-04-26T09:53:37.916Z,26.57
2023-04-26T09:54:37.941Z,25.50
2023-04-26T09:55:37.894Z,26.00
2023-04-26T09:56:38.002Z,26.39
2023-04-26T09:57:38.064Z,26.12
2023-04-26T09:58:38.077Z,26.21
2023-04-26T09:59:38.136Z,26.63
2023-04-26T10:00:38.261Z,26.28
2023-04-26T10:01:38.350Z,26.18
2023-04-26T10:02:38.435Z,26.01
2023-04-26T10:03:38.697Z,26.45
2023-04-26T10:04:38.439Z,26.43
2023-04-26T10:05:38.481Z,26.31
2023-04-26T10:06:38.504Z,25.90
2023-04-26T10:07:38.597Z,26.14
2023-04-26T10:08:38.646Z,24.90
2023-04-26T10:09:38.680Z,25.34
2023-04-26T10:10:38.744Z,25.47
2023-04-26T10:11:39.344Z,24.99
2023-04-26T10:12:38.831Z,25.05
2023-04-26T10:13:38.910Z,25.57
2023-04-26T10:14:38.923Z,25.60
2023-04-26T10:15:38.987Z,25.40
2023-04-26T10:16:39.109Z,25.26
2023-04-26T10:17:39.105Z,25.42
2023-04-26T10:18:39.175Z,25.73
2023-04-26T10:19:39.200Z,25.04
2023-04-26T10:20:39.297Z,24.11
2023-04-26T10:21:39.345Z,24.37
2023-04-26T10:22:39.363Z,24.43
2023-04-26T10:23:39.430Z,24.94
2023-04-26T10:24:39.453Z,25.60
2023-04-26T10:25:39.573Z,25.46
2023-04-26T10:26:39.574Z,24.24
2023-04-26T10:27:39.624Z,24.86
2023-04-26T10:28:39.706Z,24.87
2023-04-26T10:29:39.770Z,25.05
2023-04-26T10:30:39.785Z,24.63
2023-04-26T10:31:40.133Z,24.85
2023-04-26T10:32:39.964Z,24.81
2023-04-26T10:33:39.997Z,24.81
2023-04-26T10:34:40.030Z,24.87
2023-04-26T10:35:40.077Z,24.85
2023-04-26T10:36:40.141Z,24.81
2023-04-26T10:37:40.226Z,24.88
2023-04-26T10:38:41.149Z,24.88
2023-04-26T10:39:40.185Z,24.89
2023-04-26T10:40:40.203Z,24.94
2023-04-26T10:41:40.637Z,24.94
2023-04-26T10:42:41.564Z,24.96
2023-04-26T10:43:40.120Z,24.92
2023-04-26T10:44:40.170Z,24.94
2023-04-26T10:45:40.200Z,25.02
2023-04-26T10:46:40.295Z,24.98
2023-04-26T10:47:40.124Z,25.00
2023-04-26T10:48:40.101Z,24.98
2023-04-26T10:49:40.136Z,25.00
2023-04-26T10:50:40.185Z,24.98
2023-04-26T10:51:40.228Z,25.07
2023-04-26T10:52:40.257Z,25.11
2023-04-26T10:53:40.282Z,25.16
2023-04-26T10:54:40.347Z,25.14
2023-04-26T10:55:40.384Z,25.13
2023-04-26T10:56:40.428Z,25.19
2023-04-26T10:57:40.481Z,25.24
2023-04-26T10:58:40.514Z,25.24
2023-04-26T10:59:53.894Z,25.27
2023-04-26T11:00:41.538Z,25.30
2023-04-26T11:01:40.596Z,25.36
2023-04-26T11:02:40.640Z,25.33
2023-04-26T11:03:40.861Z,25.41
2023-04-26T11:04:40.573Z,25.42
2023-04-26T11:05:40.508Z,25.44
2023-04-26T11:06:40.701Z,25.49
2023-04-26T11:07:40.483Z,25.44
2023-04-26T11:08:40.499Z,25.47
2023-04-26T11:09:40.486Z,25.46
2023-04-26T11:10:40.484Z,25.52
2023-04-26T11:11:40.500Z,25.52
2023-04-26T11:12:40.566Z,25.47
2023-04-26T11:13:40.578Z,25.53
2023-04-26T11:14:40.626Z,25.58
2023-04-26T11:15:40.761Z,25.63
2023-04-26T11:16:40.691Z,25.66
2023-04-26T11:17:40.732Z,25.67
2023-04-26T11:18:40.740Z,25.72
2023-04-26T11:19:40.760Z,25.69
2023-04-26T11:20:40.773Z,25.71
2023-04-26T11:21:41.146Z,25.71
2023-04-26T11:22:40.806Z,25.77
2023-04-26T11:23:40.873Z,25.73
2023-04-26T11:24:40.886Z,25.74
2023-04-26T11:25:40.921Z,25.84
2023-04-26T11:26:40.970Z,25.88
2023-04-26T11:27:40.958Z,25.85
2023-04-26T11:28:41.016Z,25.86
2023-04-26T11:29:41.011Z,25.93
2023-04-26T11:30:41.040Z,25.92
2023-04-26T11:31:41.132Z,25.90
2023-04-26T11:32:41.140Z,25.98
2023-04-26T11:33:41.145Z,25.94
2023-04-26T11:34:41.182Z,26.04
2023-04-26T11:35:41.204Z,26.02
2023-04-26T11:36:41.695Z,26.06
2023-04-26T11:37:41.296Z,26.03
2023-04-26T11:38:41.371Z,26.09
2023-04-26T11:39:41.324Z,26.09
2023-04-26T11:40:41.327Z,26.15
2023-04-26T11:41:41.684Z,26.09
2023-04-26T11:42:41.379Z,26.14
2023-04-26T11:43:41.434Z,26.06
2023-04-26T11:44:41.465Z,26.14
2023-04-26T11:45:41.498Z,26.12
2023-04-26T11:46:41.508Z,26.18
2023-04-26T11:47:41.531Z,26.18
2023-04-26T11:48:41.517Z,26.19
2023-04-26T11:49:41.574Z,26.15
2023-04-26T11:50:41.576Z,26.19
2023-04-26T11:51:41.607Z,26.18
2023-04-26T11:52:41.636Z,26.26
2023-04-26T11:53:41.620Z,26.24
2023-04-26T11:54:41.673Z,26.27
2023-04-26T11:55:41.686Z,26.21
2023-04-26T11:56:41.803Z,26.21
2023-04-26T11:57:41.722Z,26.27
2023-04-26T11:58:41.743Z,26.28
2023-04-26T11:59:41.792Z,26.26
2023-04-26T12:00:41.823Z,26.23
2023-04-26T12:01:41.869Z,26.27
2023-04-26T12:02:42.010Z,26.27
2023-04-26T12:03:41.962Z,26.26
2023-04-26T12:04:42.328Z,26.32
2023-04-26T12:05:41.881Z,26.30
2023-04-26T12:06:41.942Z,26.34
2023-04-26T12:07:41.913Z,26.34
2023-04-26T12:08:41.974Z,26.35
2023-04-26T12:09:41.957Z,26.43
2023-04-26T12:10:42.017Z,26.43
2023-04-26T12:11:42.018Z,26.46
2023-04-26T12:12:42.042Z,26.45
2023-04-26T12:13:42.062Z,26.49
2023-04-26T12:14:42.094Z,26.53
2023-04-26T12:15:42.113Z,26.47
2023-04-26T12:16:42.142Z,26.53
2023-04-26T12:17:42.725Z,26.55
2023-04-26T12:18:42.181Z,26.49
2023-04-26T12:19:42.187Z,26.50
2023-04-26T12:20:42.248Z,26.50
2023-04-26T12:21:42.439Z,26.52
2023-04-26T12:22:42.279Z,26.61
2023-04-26T12:23:42.305Z,26.52
2023-04-26T12:24:42.364Z,26.52
2023-04-26T12:25:42.385Z,26.59
2023-04-26T12:26:42.470Z,26.59
2023-04-26T12:27:42.430Z,26.68
2023-04-26T12:28:42.446Z,26.67
2023-04-26T12:29:42.483Z,26.73
2023-04-26T12:30:42.489Z,26.66
2023-04-26T12:31:42.611Z,26.70
2023-04-26T12:32:42.580Z,26.69
2023-04-26T12:33:42.626Z,26.66
2023-04-26T12:34:42.595Z,26.75
2023-04-26T12:35:42.611Z,26.72
2023-04-26T12:36:42.644Z,26.75
2023-04-26T12:37:42.676Z,26.73
2023-04-26T12:38:42.733Z,26.76
2023-04-26T12:39:42.723Z,26.79
2023-04-26T12:40:42.744Z,26.84
2023-04-26T12:41:42.802Z,26.75
2023-04-26T12:42:42.805Z,26.77
2023-04-26T12:43:42.853Z,26.77
2023-04-26T12:44:42.851Z,26.79
2023-04-26T12:45:42.909Z,26.88
2023-04-26T12:46:42.987Z,26.86
2023-04-26T12:47:43.038Z,26.85
2023-04-26T12:48:42.993Z,26.85
2023-04-26T12:49:43.006Z,26.82
2023-04-26T12:50:43.006Z,26.83
2023-04-26T12:51:43.116Z,26.83
2023-04-26T12:52:43.053Z,26.88
2023-04-26T12:53:43.082Z,26.86
2023-04-26T12:54:43.139Z,26.93